sensor_id;sensor_type;location;lat;lon;timestamp;P1;durP1;ratioP1;P2;durP2;ratioP2
57899;SDS011;60605;53.716;19.940;2024-02-14T00:01:47;183.10;;;73.00;;
57899;SDS011;60605;53.716;19.940;2024-02-14T00:06:51;180.20;;;71.20;;
57899;SDS011;60605;53.716;19.940;2024-02-14T00:11:56;109.70;;;46.90;;
57899;SDS011;60605;53.716;19.940;2024-02-14T00:17:00;82.00;;;39.20;;
57899;SDS011;60605;53.716;19.940;2024-02-14T00:22:03;68.40;;;33.40;;
57899;SDS011;60605;53.716;19.940;2024-02-14T00:27:07;54.90;;;27.70;;
57899;SDS011;60605;53.716;19.940;2024-02-14T00:32:11;47.10;;;24.10;;
57899;SDS011;60605;53.716;19.940;2024-02-14T00:37:15;44.50;;;23.60;;
57899;SDS011;60605;53.716;19.940;2024-02-14T00:42:19;37.40;;;19.50;;
57899;SDS011;60605;53.716;19.940;2024-02-14T00:47:23;29.90;;;17.60;;
57899;SDS011;60605;53.716;19.940;2024-02-14T00:52:26;26.00;;;15.50;;
57899;SDS011;60605;53.716;19.940;2024-02-14T00:57:30;26.40;;;15.20;;
57899;SDS011;60605;53.716;19.940;2024-02-14T01:02:34;25.40;;;14.70;;
57899;SDS011;60605;53.716;19.940;2024-02-14T01:07:38;31.20;;;16.00;;
57899;SDS011;60605;53.716;19.940;2024-02-14T01:12:42;25.00;;;15.10;;
57899;SDS011;60605;53.716;19.940;2024-02-14T01:17:45;25.30;;;14.80;;
57899;SDS011;60605;53.716;19.940;2024-02-14T01:22:50;39.40;;;21.30;;
57899;SDS011;60605;53.716;19.940;2024-02-14T01:27:54;37.30;;;19.20;;
57899;SDS011;60605;53.716;19.940;2024-02-14T01:32:57;37.30;;;20.00;;
57899;SDS011;60605;53.716;19.940;2024-02-14T01:38:01;28.10;;;16.30;;
57899;SDS011;60605;53.716;19.940;2024-02-14T01:43:06;33.70;;;16.20;;
57899;SDS011;60605;53.716;19.940;2024-02-14T01:48:09;25.70;;;16.60;;
57899;SDS011;60605;53.716;19.940;2024-02-14T01:53:13;34.70;;;20.50;;
57899;SDS011;60605;53.716;19.940;2024-02-14T01:58:16;36.70;;;18.30;;
57899;SDS011;60605;53.716;19.940;2024-02-14T02:03:21;57.80;;;31.50;;
57899;SDS011;60605;53.716;19.940;2024-02-14T02:08:26;35.20;;;17.60;;
57899;SDS011;60605;53.716;19.940;2024-02-14T02:13:30;23.70;;;15.10;;
57899;SDS011;60605;53.716;19.940;2024-02-14T02:18:34;24.70;;;14.80;;
57899;SDS011;60605;53.716;19.940;2024-02-14T02:23:38;21.70;;;13.80;;
57899;SDS011;60605;53.716;19.940;2024-02-14T02:28:47;25.70;;;14.40;;
57899;SDS011;60605;53.716;19.940;2024-02-14T02:33:50;30.80;;;16.60;;
57899;SDS011;60605;53.716;19.940;2024-02-14T02:38:54;30.70;;;17.30;;
57899;SDS011;60605;53.716;19.940;2024-02-14T02:43:57;34.60;;;19.90;;
57899;SDS011;60605;53.716;19.940;2024-02-14T02:49:01;29.20;;;17.90;;
57899;SDS011;60605;53.716;19.940;2024-02-14T02:54:05;28.50;;;17.20;;
57899;SDS011;60605;53.716;19.940;2024-02-14T02:59:10;30.80;;;17.20;;
57899;SDS011;60605;53.716;19.940;2024-02-14T03:04:14;28.00;;;16.40;;
57899;SDS011;60605;53.716;19.940;2024-02-14T03:09:18;36.60;;;19.00;;
57899;SDS011;60605;53.716;19.940;2024-02-14T03:14:21;31.60;;;16.70;;
57899;SDS011;60605;53.716;19.940;2024-02-14T03:19:25;34.40;;;18.70;;
57899;SDS011;60605;53.716;19.940;2024-02-14T03:24:30;27.90;;;16.60;;
57899;SDS011;60605;53.716;19.940;2024-02-14T03:29:33;29.00;;;15.30;;
57899;SDS011;60605;53.716;19.940;2024-02-14T03:34:38;29.80;;;17.60;;
57899;SDS011;60605;53.716;19.940;2024-02-14T03:39:42;61.90;;;25.60;;
57899;SDS011;60605;53.716;19.940;2024-02-14T03:44:45;35.30;;;20.20;;
57899;SDS011;60605;53.716;19.940;2024-02-14T03:49:49;88.30;;;31.80;;
57899;SDS011;60605;53.716;19.940;2024-02-14T03:54:52;29.00;;;17.20;;
57899;SDS011;60605;53.716;19.940;2024-02-14T03:59:57;50.10;;;21.30;;
57899;SDS011;60605;53.716;19.940;2024-02-14T04:05:02;30.20;;;16.20;;
57899;SDS011;60605;53.716;19.940;2024-02-14T04:10:06;28.50;;;16.40;;
57899;SDS011;60605;53.716;19.940;2024-02-14T04:15:10;21.80;;;15.10;;
57899;SDS011;60605;53.716;19.940;2024-02-14T04:20:14;32.80;;;18.20;;
57899;SDS011;60605;53.716;19.940;2024-02-14T04:25:18;32.50;;;18.20;;
57899;SDS011;60605;53.716;19.940;2024-02-14T04:30:21;29.20;;;16.50;;
57899;SDS011;60605;53.716;19.940;2024-02-14T04:35:25;29.90;;;17.60;;
57899;SDS011;60605;53.716;19.940;2024-02-14T04:40:28;30.80;;;17.30;;
57899;SDS011;60605;53.716;19.940;2024-02-14T04:45:32;28.10;;;16.80;;
57899;SDS011;60605;53.716;19.940;2024-02-14T04:50:35;25.00;;;16.20;;
57899;SDS011;60605;53.716;19.940;2024-02-14T04:55:40;28.80;;;16.50;;
57899;SDS011;60605;53.716;19.940;2024-02-14T05:00:43;26.60;;;16.90;;
57899;SDS011;60605;53.716;19.940;2024-02-14T05:05:47;27.10;;;16.60;;
57899;SDS011;60605;53.716;19.940;2024-02-14T05:10:51;26.70;;;16.30;;
57899;SDS011;60605;53.716;19.940;2024-02-14T05:15:54;26.60;;;16.60;;
57899;SDS011;60605;53.716;19.940;2024-02-14T05:20:57;31.50;;;17.60;;
57899;SDS011;60605;53.716;19.940;2024-02-14T05:26:02;29.50;;;17.20;;
57899;SDS011;60605;53.716;19.940;2024-02-14T05:31:05;25.10;;;17.30;;
57899;SDS011;60605;53.716;19.940;2024-02-14T05:36:09;26.10;;;17.00;;
57899;SDS011;60605;53.716;19.940;2024-02-14T05:41:13;30.80;;;18.00;;
57899;SDS011;60605;53.716;19.940;2024-02-14T05:46:16;30.90;;;17.80;;
57899;SDS011;60605;53.716;19.940;2024-02-14T05:51:20;28.00;;;18.40;;
57899;SDS011;60605;53.716;19.940;2024-02-14T05:56:23;36.50;;;19.30;;
57899;SDS011;60605;53.716;19.940;2024-02-14T06:01:27;33.50;;;19.50;;
57899;SDS011;60605;53.716;19.940;2024-02-14T06:06:31;30.50;;;19.90;;
57899;SDS011;60605;53.716;19.940;2024-02-14T06:11:36;33.70;;;20.40;;
57899;SDS011;60605;53.716;19.940;2024-02-14T06:16:42;34.80;;;20.00;;
57899;SDS011;60605;53.716;19.940;2024-02-14T06:21:47;34.20;;;20.30;;
57899;SDS011;60605;53.716;19.940;2024-02-14T06:26:50;36.80;;;22.60;;
57899;SDS011;60605;53.716;19.940;2024-02-14T06:31:54;38.40;;;23.60;;
57899;SDS011;60605;53.716;19.940;2024-02-14T06:36:57;36.20;;;22.40;;
57899;SDS011;60605;53.716;19.940;2024-02-14T06:42:01;38.70;;;22.60;;
57899;SDS011;60605;53.716;19.940;2024-02-14T06:47:04;38.40;;;22.40;;
57899;SDS011;60605;53.716;19.940;2024-02-14T06:52:08;43.90;;;24.30;;
57899;SDS011;60605;53.716;19.940;2024-02-14T06:57:11;44.30;;;24.60;;
57899;SDS011;60605;53.716;19.940;2024-02-14T07:02:15;47.00;;;24.80;;
57899;SDS011;60605;53.716;19.940;2024-02-14T07:07:19;52.60;;;26.60;;
57899;SDS011;60605;53.716;19.940;2024-02-14T07:12:22;52.10;;;26.40;;
57899;SDS011;60605;53.716;19.940;2024-02-14T07:17:26;50.10;;;25.70;;
57899;SDS011;60605;53.716;19.940;2024-02-14T07:22:30;41.60;;;21.70;;
57899;SDS011;60605;53.716;19.940;2024-02-14T07:27:33;48.10;;;22.80;;
57899;SDS011;60605;53.716;19.940;2024-02-14T07:32:37;44.10;;;23.90;;
57899;SDS011;60605;53.716;19.940;2024-02-14T07:37:41;38.90;;;20.30;;
57899;SDS011;60605;53.716;19.940;2024-02-14T07:42:45;45.80;;;20.80;;
57899;SDS011;60605;53.716;19.940;2024-02-14T07:47:49;39.10;;;20.20;;
57899;SDS011;60605;53.716;19.940;2024-02-14T07:52:53;40.80;;;20.30;;
57899;SDS011;60605;53.716;19.940;2024-02-14T07:57:57;43.60;;;22.00;;
57899;SDS011;60605;53.716;19.940;2024-02-14T08:03:00;39.50;;;22.40;;
57899;SDS011;60605;53.716;19.940;2024-02-14T08:08:07;72.90;;;23.60;;
57899;SDS011;60605;53.716;19.940;2024-02-14T08:13:10;276.90;;;88.70;;
57899;SDS011;60605;53.716;19.940;2024-02-14T08:18:18;137.50;;;52.60;;
57899;SDS011;60605;53.716;19.940;2024-02-14T08:23:21;50.20;;;25.00;;
57899;SDS011;60605;53.716;19.940;2024-02-14T08:28:25;30.00;;;16.20;;
57899;SDS011;60605;53.716;19.940;2024-02-14T08:33:29;23.40;;;13.90;;
57899;SDS011;60605;53.716;19.940;2024-02-14T08:38:33;20.40;;;12.20;;
57899;SDS011;60605;53.716;19.940;2024-02-14T08:43:37;21.20;;;12.80;;
57899;SDS011;60605;53.716;19.940;2024-02-14T08:48:41;17.30;;;12.40;;
57899;SDS011;60605;53.716;19.940;2024-02-14T08:53:51;15.10;;;11.10;;
57899;SDS011;60605;53.716;19.940;2024-02-14T08:58:59;13.00;;;9.90;;
57899;SDS011;60605;53.716;19.940;2024-02-14T09:04:04;15.80;;;10.50;;
57899;SDS011;60605;53.716;19.940;2024-02-14T09:09:08;24.30;;;14.60;;
57899;SDS011;60605;53.716;19.940;2024-02-14T09:14:13;19.10;;;11.70;;
57899;SDS011;60605;53.716;19.940;2024-02-14T09:19:16;14.20;;;10.60;;
57899;SDS011;60605;53.716;19.940;2024-02-14T09:24:20;12.40;;;10.00;;
57899;SDS011;60605;53.716;19.940;2024-02-14T09:29:23;14.80;;;10.10;;
57899;SDS011;60605;53.716;19.940;2024-02-14T09:34:27;11.20;;;9.10;;
57899;SDS011;60605;53.716;19.940;2024-02-14T09:39:30;13.10;;;9.30;;
57899;SDS011;60605;53.716;19.940;2024-02-14T09:44:34;13.70;;;8.00;;
57899;SDS011;60605;53.716;19.940;2024-02-14T09:49:40;12.30;;;9.20;;
57899;SDS011;60605;53.716;19.940;2024-02-14T09:54:45;11.40;;;8.80;;
57899;SDS011;60605;53.716;19.940;2024-02-14T09:59:49;12.40;;;9.20;;
57899;SDS011;60605;53.716;19.940;2024-02-14T10:04:54;13.30;;;9.10;;
57899;SDS011;60605;53.716;19.940;2024-02-14T10:10:05;11.80;;;9.30;;
57899;SDS011;60605;53.716;19.940;2024-02-14T10:15:10;14.20;;;9.50;;
57899;SDS011;60605;53.716;19.940;2024-02-14T10:20:16;15.90;;;11.50;;
57899;SDS011;60605;53.716;19.940;2024-02-14T10:25:20;12.40;;;9.90;;
57899;SDS011;60605;53.716;19.940;2024-02-14T10:30:24;12.90;;;8.80;;
57899;SDS011;60605;53.716;19.940;2024-02-14T10:35:29;13.60;;;10.10;;
57899;SDS011;60605;53.716;19.940;2024-02-14T10:40:35;12.40;;;8.90;;
57899;SDS011;60605;53.716;19.940;2024-02-14T10:45:41;30.10;;;14.30;;
57899;SDS011;60605;53.716;19.940;2024-02-14T10:50:45;16.10;;;10.00;;
57899;SDS011;60605;53.716;19.940;2024-02-14T10:55:51;15.20;;;10.30;;
57899;SDS011;60605;53.716;19.940;2024-02-14T11:00:56;12.60;;;8.70;;
57899;SDS011;60605;53.716;19.940;2024-02-14T11:06:01;16.60;;;9.80;;
57899;SDS011;60605;53.716;19.940;2024-02-14T11:11:07;14.80;;;9.40;;
57899;SDS011;60605;53.716;19.940;2024-02-14T11:16:11;15.90;;;9.80;;
57899;SDS011;60605;53.716;19.940;2024-02-14T11:21:16;17.10;;;11.20;;
57899;SDS011;60605;53.716;19.940;2024-02-14T11:26:21;19.00;;;12.10;;
57899;SDS011;60605;53.716;19.940;2024-02-14T11:31:31;19.40;;;12.00;;
57899;SDS011;60605;53.716;19.940;2024-02-14T11:36:38;11.00;;;8.60;;
57899;SDS011;60605;53.716;19.940;2024-02-14T11:41:43;15.00;;;10.10;;
57899;SDS011;60605;53.716;19.940;2024-02-14T11:46:47;18.60;;;9.60;;
57899;SDS011;60605;53.716;19.940;2024-02-14T11:51:51;19.40;;;10.30;;
57899;SDS011;60605;53.716;19.940;2024-02-14T11:56:56;18.70;;;11.10;;
57899;SDS011;60605;53.716;19.940;2024-02-14T12:02:00;19.30;;;11.10;;
57899;SDS011;60605;53.716;19.940;2024-02-14T12:07:05;21.20;;;11.70;;
57899;SDS011;60605;53.716;19.940;2024-02-14T12:12:09;13.00;;;8.10;;
57899;SDS011;60605;53.716;19.940;2024-02-14T12:17:13;15.50;;;8.40;;
57899;SDS011;60605;53.716;19.940;2024-02-14T12:22:16;15.40;;;9.50;;
57899;SDS011;60605;53.716;19.940;2024-02-14T12:27:24;13.60;;;8.60;;
57899;SDS011;60605;53.716;19.940;2024-02-14T12:32:28;18.30;;;10.90;;
57899;SDS011;60605;53.716;19.940;2024-02-14T12:37:31;17.80;;;9.20;;
57899;SDS011;60605;53.716;19.940;2024-02-14T12:42:35;22.60;;;11.10;;
57899;SDS011;60605;53.716;19.940;2024-02-14T12:47:39;17.30;;;8.20;;
57899;SDS011;60605;53.716;19.940;2024-02-14T12:52:46;16.80;;;8.90;;
57899;SDS011;60605;53.716;19.940;2024-02-14T12:57:49;15.10;;;8.10;;
57899;SDS011;60605;53.716;19.940;2024-02-14T13:02:53;16.20;;;7.60;;
57899;SDS011;60605;53.716;19.940;2024-02-14T13:07:57;14.10;;;7.90;;
57899;SDS011;60605;53.716;19.940;2024-02-14T13:13:00;14.80;;;8.00;;
57899;SDS011;60605;53.716;19.940;2024-02-14T13:18:04;17.70;;;9.20;;
57899;SDS011;60605;53.716;19.940;2024-02-14T13:23:08;17.60;;;9.50;;
57899;SDS011;60605;53.716;19.940;2024-02-14T13:28:12;11.90;;;8.20;;
57899;SDS011;60605;53.716;19.940;2024-02-14T13:33:16;12.30;;;8.20;;
57899;SDS011;60605;53.716;19.940;2024-02-14T13:38:19;11.70;;;6.90;;
57899;SDS011;60605;53.716;19.940;2024-02-14T13:43:23;11.80;;;7.10;;
57899;SDS011;60605;53.716;19.940;2024-02-14T13:48:26;15.50;;;8.50;;
57899;SDS011;60605;53.716;19.940;2024-02-14T13:53:30;17.70;;;10.20;;
57899;SDS011;60605;53.716;19.940;2024-02-14T13:58:33;13.90;;;7.80;;
57899;SDS011;60605;53.716;19.940;2024-02-14T14:03:37;17.10;;;8.70;;
57899;SDS011;60605;53.716;19.940;2024-02-14T14:08:40;11.20;;;6.90;;
57899;SDS011;60605;53.716;19.940;2024-02-14T14:13:44;14.60;;;8.40;;
57899;SDS011;60605;53.716;19.940;2024-02-14T14:18:50;13.40;;;7.70;;
57899;SDS011;60605;53.716;19.940;2024-02-14T14:23:56;16.50;;;9.30;;
57899;SDS011;60605;53.716;19.940;2024-02-14T14:29:00;15.70;;;8.00;;
57899;SDS011;60605;53.716;19.940;2024-02-14T14:34:05;17.90;;;8.60;;
57899;SDS011;60605;53.716;19.940;2024-02-14T14:39:08;13.00;;;7.30;;
57899;SDS011;60605;53.716;19.940;2024-02-14T14:44:15;20.80;;;8.90;;
57899;SDS011;60605;53.716;19.940;2024-02-14T14:49:18;35.90;;;14.50;;
57899;SDS011;60605;53.716;19.940;2024-02-14T14:54:22;24.60;;;10.60;;
57899;SDS011;60605;53.716;19.940;2024-02-14T14:59:29;68.30;;;28.50;;
57899;SDS011;60605;53.716;19.940;2024-02-14T15:04:33;22.20;;;10.90;;
57899;SDS011;60605;53.716;19.940;2024-02-14T15:09:39;31.00;;;11.20;;
57899;SDS011;60605;53.716;19.940;2024-02-14T15:14:43;39.10;;;13.20;;
57899;SDS011;60605;53.716;19.940;2024-02-14T15:19:46;23.10;;;11.10;;
57899;SDS011;60605;53.716;19.940;2024-02-14T15:24:51;26.00;;;11.60;;
57899;SDS011;60605;53.716;19.940;2024-02-14T15:29:54;28.00;;;11.90;;
57899;SDS011;60605;53.716;19.940;2024-02-14T15:35:17;39.90;;;16.00;;
57899;SDS011;60605;53.716;19.940;2024-02-14T15:40:21;226.30;;;75.90;;
57899;SDS011;60605;53.716;19.940;2024-02-14T15:45:26;50.20;;;20.00;;
57899;SDS011;60605;53.716;19.940;2024-02-14T15:50:29;40.90;;;19.80;;
57899;SDS011;60605;53.716;19.940;2024-02-14T15:55:32;37.50;;;18.40;;
57899;SDS011;60605;53.716;19.940;2024-02-14T16:00:36;84.90;;;34.50;;
57899;SDS011;60605;53.716;19.940;2024-02-14T16:05:39;70.20;;;33.30;;
57899;SDS011;60605;53.716;19.940;2024-02-14T16:10:43;63.00;;;34.30;;
57899;SDS011;60605;53.716;19.940;2024-02-14T16:15:47;140.50;;;61.80;;
57899;SDS011;60605;53.716;19.940;2024-02-14T16:20:51;112.10;;;50.20;;
57899;SDS011;60605;53.716;19.940;2024-02-14T16:25:55;129.60;;;56.60;;
57899;SDS011;60605;53.716;19.940;2024-02-14T16:30:59;85.50;;;41.80;;
57899;SDS011;60605;53.716;19.940;2024-02-14T16:36:03;82.90;;;35.70;;
57899;SDS011;60605;53.716;19.940;2024-02-14T16:41:07;75.80;;;33.40;;
57899;SDS011;60605;53.716;19.940;2024-02-14T16:46:13;67.40;;;35.40;;
57899;SDS011;60605;53.716;19.940;2024-02-14T16:51:17;49.50;;;24.00;;
57899;SDS011;60605;53.716;19.940;2024-02-14T16:56:21;49.90;;;24.00;;
57899;SDS011;60605;53.716;19.940;2024-02-14T17:01:27;67.10;;;28.60;;
57899;SDS011;60605;53.716;19.940;2024-02-14T17:06:31;79.70;;;33.80;;
57899;SDS011;60605;53.716;19.940;2024-02-14T17:11:35;83.80;;;34.40;;
57899;SDS011;60605;53.716;19.940;2024-02-14T17:16:39;34.50;;;20.00;;
57899;SDS011;60605;53.716;19.940;2024-02-14T17:21:45;35.70;;;19.10;;
57899;SDS011;60605;53.716;19.940;2024-02-14T17:26:50;27.90;;;17.80;;
57899;SDS011;60605;53.716;19.940;2024-02-14T17:31:54;34.80;;;19.30;;
57899;SDS011;60605;53.716;19.940;2024-02-14T17:36:58;31.10;;;17.30;;
57899;SDS011;60605;53.716;19.940;2024-02-14T17:42:01;35.30;;;18.30;;
57899;SDS011;60605;53.716;19.940;2024-02-14T17:47:05;34.40;;;20.00;;
57899;SDS011;60605;53.716;19.940;2024-02-14T17:52:09;50.60;;;26.30;;
57899;SDS011;60605;53.716;19.940;2024-02-14T17:57:13;42.10;;;24.50;;
57899;SDS011;60605;53.716;19.940;2024-02-14T18:02:19;63.80;;;31.90;;
57899;SDS011;60605;53.716;19.940;2024-02-14T18:07:23;84.30;;;40.90;;
57899;SDS011;60605;53.716;19.940;2024-02-14T18:12:27;59.70;;;32.10;;
57899;SDS011;60605;53.716;19.940;2024-02-14T18:17:31;74.60;;;39.10;;
57899;SDS011;60605;53.716;19.940;2024-02-14T18:22:34;68.80;;;30.80;;
57899;SDS011;60605;53.716;19.940;2024-02-14T18:27:38;48.10;;;25.20;;
57899;SDS011;60605;53.716;19.940;2024-02-14T18:32:42;54.60;;;27.00;;
57899;SDS011;60605;53.716;19.940;2024-02-14T18:37:46;51.60;;;24.80;;
57899;SDS011;60605;53.716;19.940;2024-02-14T18:42:50;75.50;;;37.00;;
57899;SDS011;60605;53.716;19.940;2024-02-14T18:47:54;70.60;;;37.50;;
57899;SDS011;60605;53.716;19.940;2024-02-14T18:52:58;47.50;;;25.70;;
57899;SDS011;60605;53.716;19.940;2024-02-14T18:58:01;58.10;;;32.20;;
57899;SDS011;60605;53.716;19.940;2024-02-14T19:03:07;44.40;;;24.40;;
57899;SDS011;60605;53.716;19.940;2024-02-14T19:08:11;52.10;;;28.00;;
57899;SDS011;60605;53.716;19.940;2024-02-14T19:13:15;46.50;;;26.80;;
57899;SDS011;60605;53.716;19.940;2024-02-14T19:18:19;49.50;;;31.50;;
57899;SDS011;60605;53.716;19.940;2024-02-14T19:23:23;65.30;;;27.30;;
57899;SDS011;60605;53.716;19.940;2024-02-14T19:28:27;61.50;;;28.50;;
57899;SDS011;60605;53.716;19.940;2024-02-14T19:33:32;47.90;;;23.80;;
57899;SDS011;60605;53.716;19.940;2024-02-14T19:38:36;42.30;;;22.60;;
57899;SDS011;60605;53.716;19.940;2024-02-14T19:43:40;57.10;;;29.10;;
57899;SDS011;60605;53.716;19.940;2024-02-14T19:48:43;48.80;;;23.50;;
57899;SDS011;60605;53.716;19.940;2024-02-14T19:53:48;56.20;;;26.10;;
57899;SDS011;60605;53.716;19.940;2024-02-14T19:58:52;47.70;;;23.40;;
57899;SDS011;60605;53.716;19.940;2024-02-14T20:03:55;45.60;;;23.50;;
57899;SDS011;60605;53.716;19.940;2024-02-14T20:09:02;42.50;;;22.10;;
57899;SDS011;60605;53.716;19.940;2024-02-14T20:14:06;38.90;;;20.20;;
57899;SDS011;60605;53.716;19.940;2024-02-14T20:19:11;54.40;;;27.40;;
57899;SDS011;60605;53.716;19.940;2024-02-14T20:24:18;56.10;;;23.20;;
57899;SDS011;60605;53.716;19.940;2024-02-14T20:29:23;51.80;;;23.10;;
57899;SDS011;60605;53.716;19.940;2024-02-14T20:34:27;81.10;;;33.50;;
57899;SDS011;60605;53.716;19.940;2024-02-14T20:39:31;95.50;;;35.60;;
57899;SDS011;60605;53.716;19.940;2024-02-14T20:44:34;49.10;;;22.20;;
57899;SDS011;60605;53.716;19.940;2024-02-14T20:49:38;40.40;;;20.90;;
57899;SDS011;60605;53.716;19.940;2024-02-14T20:54:42;39.30;;;21.30;;
57899;SDS011;60605;53.716;19.940;2024-02-14T20:59:46;42.20;;;20.50;;
57899;SDS011;60605;53.716;19.940;2024-02-14T21:04:50;47.70;;;23.90;;
57899;SDS011;60605;53.716;19.940;2024-02-14T21:09:54;41.30;;;22.70;;
57899;SDS011;60605;53.716;19.940;2024-02-14T21:14:59;36.00;;;21.80;;
57899;SDS011;60605;53.716;19.940;2024-02-14T21:20:04;105.10;;;34.70;;
57899;SDS011;60605;53.716;19.940;2024-02-14T21:25:08;64.30;;;27.80;;
57899;SDS011;60605;53.716;19.940;2024-02-14T21:30:13;78.20;;;34.10;;
57899;SDS011;60605;53.716;19.940;2024-02-14T21:35:17;53.30;;;23.10;;
57899;SDS011;60605;53.716;19.940;2024-02-14T21:40:21;46.30;;;22.00;;
57899;SDS011;60605;53.716;19.940;2024-02-14T21:45:25;59.70;;;23.10;;
57899;SDS011;60605;53.716;19.940;2024-02-14T21:50:29;53.30;;;23.10;;
57899;SDS011;60605;53.716;19.940;2024-02-14T21:55:33;49.80;;;21.90;;
57899;SDS011;60605;53.716;19.940;2024-02-14T22:00:38;94.80;;;64.30;;
57899;SDS011;60605;53.716;19.940;2024-02-14T22:05:41;72.20;;;28.20;;
57899;SDS011;60605;53.716;19.940;2024-02-14T22:10:46;49.00;;;22.30;;
57899;SDS011;60605;53.716;19.940;2024-02-14T22:15:50;43.10;;;20.20;;
57899;SDS011;60605;53.716;19.940;2024-02-14T22:20:54;35.40;;;19.80;;
57899;SDS011;60605;53.716;19.940;2024-02-14T22:25:57;33.90;;;17.90;;
57899;SDS011;60605;53.716;19.940;2024-02-14T22:31:02;85.10;;;43.90;;
57899;SDS011;60605;53.716;19.940;2024-02-14T22:36:05;27.40;;;15.90;;
57899;SDS011;60605;53.716;19.940;2024-02-14T22:41:09;42.40;;;18.80;;
57899;SDS011;60605;53.716;19.940;2024-02-14T22:46:13;29.10;;;15.70;;
57899;SDS011;60605;53.716;19.940;2024-02-14T22:51:16;49.20;;;35.50;;
57899;SDS011;60605;53.716;19.940;2024-02-14T22:56:20;48.40;;;30.50;;
57899;SDS011;60605;53.716;19.940;2024-02-14T23:01:24;38.20;;;19.10;;
57899;SDS011;60605;53.716;19.940;2024-02-14T23:06:28;34.10;;;16.90;;
57899;SDS011;60605;53.716;19.940;2024-02-14T23:11:37;31.00;;;16.80;;
57899;SDS011;60605;53.716;19.940;2024-02-14T23:16:41;33.10;;;16.60;;
57899;SDS011;60605;53.716;19.940;2024-02-14T23:21:44;29.60;;;16.10;;
57899;SDS011;60605;53.716;19.940;2024-02-14T23:26:49;22.70;;;14.50;;
57899;SDS011;60605;53.716;19.940;2024-02-14T23:31:53;30.20;;;18.20;;
57899;SDS011;60605;53.716;19.940;2024-02-14T23:36:56;26.60;;;13.60;;
57899;SDS011;60605;53.716;19.940;2024-02-14T23:42:01;27.60;;;14.50;;
57899;SDS011;60605;53.716;19.940;2024-02-14T23:47:06;28.90;;;20.20;;
57899;SDS011;60605;53.716;19.940;2024-02-14T23:52:09;45.60;;;18.30;;
57899;SDS011;60605;53.716;19.940;2024-02-14T23:57:13;56.90;;;24.80;;
